Burney, CA

12:29 PM PDT on August 27, 2014 (GMT -0700)
Redding Municipal | Change Station
CLOSE
Current Station
Airport
Location: Redding,
Elevation: 502 ft
Nearby Weather Stations

Elev 502 ft 40.51 °N, 122.30 °W | Updated 36 minutes ago

Clear
Clear
90 °F
Feels Like 88 °F
N
0
Wind Variable Wind from North

Today
High -- | Low -- °F
--% Chance of Precip.
Yesterday
High -- | Low -- °F
Precip. -- in
6:28 AM 7:46 PM
Waxing Crescent, 4% visible
Pressure 30.03 in
Visibility 10.0 miles
Clouds Clear
Heat Index 88 °F
Dew Point 55 °F
Humidity 31%
Rainfall 0.00 in
Snow Depth Not available.
UV 8 out of 12
Pollen 8.50 out of 12
Air Quality Not available.
Flu Activity Not available.
METAR KRDD 271853Z 00000KT 10SM CLR 32/13 A3003

More Conditions Fewer Conditions

Pressure 30.03 in
Visibility 10.0 miles
Clouds Clear
Heat Index 88 °F
Dew Point 55 °F
Humidity 31%
Rainfall 0.00 in
Snow Depth Not available.
UV 8 out of 12
Pollen 8.50 out of 12
Air Quality Not available.
Flu Activity Not available.
METAR KRDD 271853Z 00000KT 10SM CLR 32/13 A3003

More Conditions Fewer Conditions

10-Day Weather Forecast

Almanac

Astronomy

Aug. 27, 2014 Rise Set
Actual Time 6:28 AM PDT 7:46 PM PDT
Civil Twilight 6:00 AM PDT 8:15 PM PDT
Nautical Twilight 5:25 AM PDT 8:49 PM PDT
Astronomical Twilight 4:49 AM PDT 9:25 PM PDT
Moon 8:30 AM PDT 8:40 PM PDT
Length of Visible Light 14h 15m
Length of Day
13h 18m
Tomorrow will be 2m 33s shorter.
Waxing Crescent, 4% of the Moon is Illuminated
Today
Waxing Crescent
Sep 2
First Quarter
Sep 8
Full
Sep 15
Last Quarter
Sep 24
New

Today's Extremes

State Highs State Lows

Community

WunderPhotos

Upload Photos

1,747,761 photos uploaded!

Nearby

Snow Depth

Station Depth Elevation
Adin Mountain 0 in 6200 ft
Cedar Pass 0 in 7100 ft
Fallen Leaf 0 in 6300 ft
Monitor Pass 0 in 8350 ft
Summit Meadow 0 in 9122 ft

Earthquake Activity

City Distance Mag. Time & Date
Hayfork, California 89 miles 2.7 2:57 PM PDT
2014-08-25
Minimum magnitude displayed is 2.5.

Coastal Water Temperatures

Place Temperature
No Stations Reporting

Nearby Weather Stations